createdAt,value
2022-10-19T00:03:18.236Z,7.80
2022-10-19T00:08:38.763Z,7.90
2022-10-19T00:14:01.369Z,7.87
2022-10-19T00:19:29.204Z,8.18
2022-10-19T00:24:51.767Z,7.08
2022-10-19T00:30:17.633Z,7.13
2022-10-19T00:35:39.767Z,6.87
2022-10-19T00:41:02.597Z,5.72
2022-10-19T00:46:26.336Z,5.70
2022-10-19T00:51:52.622Z,6.20
2022-10-19T00:57:17.083Z,5.63
2022-10-19T01:02:40.079Z,6.03
2022-10-19T01:08:02.737Z,5.93
2022-10-19T01:13:54.017Z,6.20
2022-10-19T01:19:50.243Z,6.55
2022-10-19T01:25:41.530Z,6.17
2022-10-19T01:31:18.072Z,5.97
2022-10-19T01:36:51.292Z,5.70
2022-10-19T01:42:40.449Z,5.57
2022-10-19T01:48:19.247Z,4.83
2022-10-19T01:53:46.335Z,4.37
2022-10-19T01:59:12.382Z,4.25
2022-10-19T02:04:37.302Z,3.83
2022-10-19T02:09:59.450Z,3.93
2022-10-19T02:15:26.267Z,4.60
2022-10-19T02:20:49.254Z,4.40
2022-10-19T02:26:12.597Z,4.10
2022-10-19T02:31:35.648Z,4.23
2022-10-19T02:36:57.783Z,3.90
2022-10-19T02:42:30.561Z,3.53
2022-10-19T02:47:57.811Z,4.10
2022-10-19T02:53:20.826Z,3.92
2022-10-19T02:58:42.997Z,3.73
2022-10-19T03:04:05.117Z,3.67
2022-10-19T03:09:27.427Z,3.12
2022-10-19T03:14:49.757Z,4.05
2022-10-19T03:20:12.510Z,3.80
2022-10-19T03:25:34.700Z,4.58
2022-10-19T03:30:56.921Z,4.37
2022-10-19T03:36:41.092Z,4.03
2022-10-19T03:42:03.656Z,4.62
2022-10-19T03:47:26.383Z,4.22
2022-10-19T03:52:50.041Z,3.92
2022-10-19T03:58:12.226Z,4.12
2022-10-19T04:08:57.394Z,3.70
2022-10-19T04:14:31.850Z,4.67
2022-10-19T04:19:46.265Z,3.80
2022-10-19T04:25:08.845Z,3.72
2022-10-19T04:30:31.613Z,3.62
2022-10-19T04:35:54.272Z,3.47
2022-10-19T04:41:24.399Z,3.52
2022-10-19T04:46:47.595Z,3.50
2022-10-19T04:52:10.029Z,3.67
2022-10-19T04:57:32.574Z,3.60
2022-10-19T05:02:55.853Z,3.70
2022-10-19T05:08:18.382Z,3.83
2022-10-19T05:13:40.864Z,3.70
2022-10-19T05:19:06.084Z,4.65
2022-10-19T05:24:31.460Z,4.10
2022-10-19T05:29:53.574Z,3.65
2022-10-19T05:35:18.643Z,3.27
2022-10-19T05:40:40.096Z,3.60
2022-10-19T05:46:02.232Z,3.17
2022-10-19T05:51:27.669Z,2.10
2022-10-19T05:56:50.845Z,2.50
2022-10-19T06:02:13.033Z,2.95
2022-10-19T06:07:35.947Z,2.62
2022-10-19T06:12:58.443Z,2.10
2022-10-19T06:18:24.894Z,2.30
2022-10-19T06:23:47.985Z,1.98
2022-10-19T06:29:13.575Z,1.72
2022-10-19T06:34:35.777Z,2.37
2022-10-19T06:39:58.230Z,1.42
2022-10-19T06:45:21.808Z,1.70
2022-10-19T06:50:44.153Z,1.87
2022-10-19T06:56:07.073Z,1.45
2022-10-19T07:01:30.241Z,1.50
2022-10-19T07:06:52.840Z,1.40
2022-10-19T07:12:14.981Z,1.30
2022-10-19T07:17:37.219Z,1.45
2022-10-19T07:22:59.758Z,1.42
2022-10-19T07:28:22.388Z,1.20
2022-10-19T07:33:44.785Z,1.32
2022-10-19T07:39:08.542Z,1.32
2022-10-19T07:44:31.013Z,1.22
2022-10-19T07:49:53.184Z,1.40
2022-10-19T07:55:15.394Z,1.35
2022-10-19T08:06:00.160Z,1.27
2022-10-19T08:11:32.878Z,1.50
2022-10-19T08:16:56.557Z,1.40
2022-10-19T08:22:18.764Z,1.30
2022-10-19T08:27:40.989Z,1.17
2022-10-19T08:33:04.911Z,1.00
2022-10-19T08:38:27.392Z,0.90
2022-10-19T08:43:54.790Z,0.80
2022-10-19T08:49:19.320Z,0.85
2022-10-19T08:54:48.147Z,0.62
2022-10-19T09:00:30.271Z,0.50
2022-10-19T09:06:23.713Z,0.53
2022-10-19T09:11:55.972Z,0.42
2022-10-19T09:17:32.963Z,0.40
2022-10-19T09:23:00.950Z,0.53
2022-10-19T09:29:03.488Z,0.90
2022-10-19T09:34:52.053Z,0.70
2022-10-19T09:40:16.657Z,1.37
2022-10-19T09:45:57.733Z,0.73
2022-10-19T09:51:25.490Z,0.60
2022-10-19T09:56:48.501Z,0.57
2022-10-19T10:02:30.595Z,0.60
2022-10-19T10:07:55.761Z,0.67
2022-10-19T10:13:25.450Z,0.47
2022-10-19T10:19:02.799Z,0.40
2022-10-19T10:24:29.940Z,0.50
2022-10-19T10:29:57.770Z,0.70
2022-10-19T10:35:23.980Z,0.42
2022-10-19T10:40:48.944Z,0.50
2022-10-19T10:46:21.420Z,0.70
2022-10-19T10:51:54.481Z,0.88
2022-10-19T10:57:35.836Z,0.50
2022-10-19T11:03:23.105Z,0.60
2022-10-19T11:08:57.389Z,0.62
2022-10-19T11:14:52.498Z,0.60
2022-10-19T11:20:17.594Z,0.50
2022-10-19T11:25:57.335Z,0.40
2022-10-19T11:31:32.890Z,0.60
2022-10-19T11:37:27.940Z,0.33
2022-10-19T11:43:21.364Z,0.20
2022-10-19T11:49:12.539Z,0.40
2022-10-19T11:54:51.850Z,0.40
2022-10-19T12:00:38.821Z,0.50
2022-10-19T12:06:18.246Z,0.47
2022-10-19T12:11:57.730Z,0.40
2022-10-19T12:17:25.117Z,0.40
2022-10-19T12:22:49.641Z,0.57
2022-10-19T12:28:12.227Z,0.30
2022-10-19T12:33:47.835Z,0.40
2022-10-19T12:39:20.950Z,0.37
2022-10-19T12:45:10.095Z,0.37
2022-10-19T12:50:38.556Z,0.40
2022-10-19T12:56:06.792Z,0.50
2022-10-19T13:01:36.262Z,0.85
2022-10-19T13:07:18.315Z,0.70
2022-10-19T13:12:50.957Z,0.40
2022-10-19T13:18:20.727Z,0.30
2022-10-19T13:23:52.624Z,0.50
2022-10-19T13:29:23.411Z,0.40
2022-10-19T13:34:46.193Z,0.90
2022-10-19T13:40:08.751Z,0.40
2022-10-19T13:45:42.566Z,0.50
2022-10-19T13:51:13.999Z,15.08
2022-10-19T13:56:59.234Z,0.57
2022-10-19T14:02:28.793Z,0.37
2022-10-19T14:08:15.515Z,0.30
2022-10-19T14:13:37.712Z,0.53
2022-10-19T14:19:09.465Z,0.55
2022-10-19T14:24:41.250Z,0.70
2022-10-19T14:30:06.533Z,0.77
2022-10-19T14:35:35.861Z,0.50
2022-10-19T14:40:59.903Z,0.50
2022-10-19T14:46:27.729Z,0.40
2022-10-19T14:52:08.204Z,0.47
2022-10-19T15:03:05.731Z,0.50
2022-10-19T15:08:44.334Z,0.60
2022-10-19T15:14:16.281Z,0.55
2022-10-19T15:20:00.730Z,0.60
2022-10-19T15:25:36.398Z,0.55
2022-10-19T15:31:13.397Z,0.60
2022-10-19T15:36:38.118Z,1.12
2022-10-19T15:42:00.997Z,0.60
2022-10-19T15:47:37.598Z,0.60
2022-10-19T15:53:00.217Z,0.70
2022-10-19T15:58:26.621Z,0.50
2022-10-19T16:03:49.362Z,0.62
2022-10-19T16:09:13.097Z,0.55
2022-10-19T16:14:36.775Z,0.90
2022-10-19T16:19:59.324Z,0.80
2022-10-19T16:25:21.758Z,1.30
2022-10-19T16:30:44.023Z,1.30
2022-10-19T16:36:06.222Z,1.83
2022-10-19T16:41:29.825Z,1.55
2022-10-19T16:46:52.116Z,1.92
2022-10-19T16:52:14.328Z,1.85
2022-10-19T16:57:37.650Z,1.98
2022-10-19T17:02:59.840Z,2.00
2022-10-19T17:08:36.412Z,2.47
2022-10-19T17:13:47.182Z,2.00
2022-10-19T17:19:12.408Z,2.98
2022-10-19T17:24:37.726Z,3.30
2022-10-19T17:30:00.685Z,2.98
2022-10-19T17:35:23.075Z,3.10
2022-10-19T17:40:45.897Z,3.10
2022-10-19T17:46:11.825Z,3.75
2022-10-19T17:51:37.902Z,3.87
2022-10-19T17:57:00.498Z,3.70
2022-10-19T18:02:23.921Z,3.43
2022-10-19T18:07:46.110Z,2.70
2022-10-19T18:13:09.499Z,2.72
2022-10-19T18:18:31.714Z,2.87
2022-10-19T18:23:54.702Z,2.95
2022-10-19T18:29:27.293Z,2.80
2022-10-19T18:34:49.402Z,2.92
2022-10-19T18:40:12.531Z,2.97
2022-10-19T18:45:34.719Z,2.60
2022-10-19T18:50:56.997Z,2.92
2022-10-19T18:56:22.340Z,2.90
2022-10-19T19:01:46.502Z,2.60
2022-10-19T19:07:09.638Z,2.83
2022-10-19T19:12:31.746Z,2.80
2022-10-19T19:17:53.922Z,2.58
2022-10-19T19:23:16.121Z,2.52
2022-10-19T19:28:41.451Z,2.77
2022-10-19T19:34:02.926Z,3.08
2022-10-19T19:39:27.231Z,3.87
2022-10-19T19:44:49.456Z,2.40
2022-10-19T19:50:11.781Z,2.52
2022-10-19T19:55:36.786Z,2.58
2022-10-19T20:00:59.166Z,2.90
2022-10-19T20:06:25.949Z,3.20
2022-10-19T20:11:48.291Z,3.15
2022-10-19T20:17:10.402Z,2.70
2022-10-19T20:22:32.948Z,2.72
2022-10-19T20:27:55.965Z,2.83
2022-10-19T20:33:18.367Z,2.70
2022-10-19T20:38:40.900Z,2.35
2022-10-19T20:44:04.918Z,2.45
2022-10-19T20:49:28.709Z,2.73
2022-10-19T20:54:51.301Z,2.77
2022-10-19T21:00:13.797Z,2.65
2022-10-19T21:05:35.960Z,3.70
2022-10-19T21:10:58.130Z,4.08
2022-10-19T21:16:23.640Z,5.10
2022-10-19T21:21:50.167Z,7.25
2022-10-19T21:27:16.256Z,6.03
2022-10-19T21:32:38.389Z,5.08
2022-10-19T21:38:01.346Z,4.60
2022-10-19T21:43:23.476Z,5.97
2022-10-19T21:48:46.713Z,6.47
2022-10-19T21:59:33.975Z,9.40
2022-10-19T22:04:57.103Z,9.68
2022-10-19T22:10:19.309Z,9.83
2022-10-19T22:15:44.861Z,9.73
2022-10-19T22:21:14.429Z,8.65
2022-10-19T22:26:41.801Z,7.43
2022-10-19T22:32:04.007Z,7.17
2022-10-19T22:37:27.004Z,7.50
2022-10-19T22:42:49.601Z,7.47
2022-10-19T22:48:12.464Z,6.90
2022-10-19T22:53:35.348Z,7.50
2022-10-19T22:58:58.409Z,7.53
2022-10-19T23:04:21.396Z,8.50
2022-10-19T23:09:43.513Z,9.33
2022-10-19T23:15:05.650Z,8.45
2022-10-19T23:20:28.491Z,10.80
2022-10-19T23:25:51.196Z,8.20
2022-10-19T23:31:19.171Z,7.80
2022-10-19T23:36:43.155Z,7.15
2022-10-19T23:42:05.263Z,6.50
2022-10-19T23:47:27.729Z,7.00
2022-10-19T23:52:49.859Z,7.15
2022-10-19T23:58:11.979Z,7.60
